Time;durP1;ratioP1;P1;durP2;ratioP2;P2;SDS_P1;SDS_P2;PMS_P1;PMS_P2;Temp;Humidity;BMP_temperature;BMP_pressure;BME280_temperature;BME280_humidity;BME280_pressure;Samples;Min_cycle;Max_cycle;Signal;HPM_P1;HPM_P2
2023/10/25 00:06:57;;;;;;;7.65;5.85;;;;;;;21.96;63.15;98823.97;40147548;29;20091;-72
2023/10/25 00:26:57;;;;;;;6.85;5.88;;;;;;;22.05;62.86;98802.72;40145260;29;20052;-72
2023/10/25 00:46:59;;;;;;;6.55;5.32;;;;;;;22.07;63.01;98784.94;40137200;29;20591;-71
2023/10/25 01:07:01;;;;;;;7.28;5.32;;;;;;;21.99;63.60;98776.22;40149493;29;20045;-72
2023/10/25 01:27:03;;;;;;;8.07;5.18;;;;;;;21.88;63.09;98690.41;40138832;29;20061;-72
2023/10/25 01:47:03;;;;;;;10.18;5.10;;;;;;;22.05;63.05;98655.13;40135335;29;20048;-73
2023/10/25 02:07:04;;;;;;;6.65;4.90;;;;;;;22.01;63.59;98653.81;40144961;29;20045;-73
2023/10/25 02:27:05;;;;;;;5.20;4.22;;;;;;;21.98;63.60;98651.50;40137491;29;20132;-72
2023/10/25 02:47:06;;;;;;;5.47;4.47;;;;;;;21.97;63.52;98636.72;40133089;29;20053;-72
2023/10/25 03:07:06;;;;;;;7.07;4.60;;;;;;;21.83;63.51;98603.13;40164588;29;20050;-72
2023/10/25 03:27:07;;;;;;;5.45;4.32;;;;;;;21.92;64.11;98602.09;40180584;29;20049;-73
2023/10/25 03:47:07;;;;;;;8.23;4.63;;;;;;;21.89;63.83;98634.06;40183389;29;20692;-73
2023/10/25 04:07:12;;;;;;;5.85;4.10;;;;;;;21.92;63.60;98644.28;40173638;29;20142;-74
2023/10/25 04:27:12;;;;;;;7.72;3.97;;;;;;;22.03;63.58;98687.91;40135759;29;20515;-74
2023/10/25 04:47:13;;;;;;;14.48;6.40;;;;;;;22.03;64.14;98707.22;40132503;29;20045;-71
2023/10/25 05:07:14;;;;;;;19.70;5.82;;;;;;;21.61;64.08;98737.13;40132080;29;20522;-81
2023/10/25 05:27:14;;;;;;;17.63;5.93;;;;;;;;;;40128616;29;20048;-82
2023/10/25 05:47:15;;;;;;;9.90;5.43;;;;;;;21.41;62.77;98783.94;40153381;29;20053;-82
2023/10/25 06:07:16;;;;;;;10.23;5.68;;;;;;;21.61;62.42;98844.31;40143670;29;20034;-83
2023/10/25 06:27:16;;;;;;;9.10;5.38;;;;;;;21.81;61.99;98914.16;40147588;29;20061;-81
2023/10/25 06:47:17;;;;;;;6.65;4.53;;;;;;;21.68;62.27;98975.22;40152879;29;20126;-83
2023/10/25 07:07:23;;;;;;;6.75;4.53;;;;;;;21.65;61.75;98961.53;40133971;29;20046;-81
2023/10/25 07:27:23;;;;;;;7.43;4.43;;;;;;;21.70;61.33;98943.44;40156740;29;20049;-81
2023/10/25 07:47:24;;;;;;;5.53;4.07;;;;;;;21.74;60.77;98964.06;40123880;29;20408;-77
2023/10/25 08:07:26;;;;;;;6.55;4.22;;;;;;;21.68;60.42;99006.00;40137406;29;20119;-76
2023/10/25 08:27:26;;;;;;;6.53;3.90;;;;;;;21.78;59.79;99042.78;40131873;29;20073;-74
2023/10/25 08:47:27;;;;;;;6.68;4.30;;;;;;;21.91;59.45;99091.44;40126918;29;20142;-74
2023/10/25 09:07:36;;;;;;;6.78;3.60;;;;;;;21.87;59.90;99134.91;40125998;29;20049;-79
2023/10/25 09:27:42;;;;;;;8.20;3.47;;;;;;;21.82;59.71;99176.69;40165726;29;20072;-79
2023/10/25 09:47:45;;;;;;;5.57;3.10;;;;;;;21.76;59.59;99172.03;40198643;29;20480;-79
2023/10/25 10:08:08;;;;;;;3.00;2.70;;;;;;;21.87;59.55;99178.88;40185030;29;20587;-81
2023/10/25 10:28:09;;;;;;;3.30;3.00;;;;;;;21.89;59.25;99183.00;40165812;29;20114;-76
2023/10/25 10:48:19;;;;;;;2.58;2.22;;;;;;;21.68;54.14;99167.53;40172779;29;20074;-70
2023/10/25 11:08:21;;;;;;;4.10;2.53;;;;;;;21.89;56.71;99151.38;40129436;29;20240;-72
2023/10/25 11:28:23;;;;;;;3.28;2.47;;;;;;;22.03;57.14;99134.19;40127011;29;20049;-70
2023/10/25 11:48:24;;;;;;;5.55;2.60;;;;;;;22.32;57.49;99138.31;40150622;29;20519;-70
2023/10/25 12:08:26;;;;;;;6.53;3.60;;;;;;;22.30;57.93;99119.19;40133613;29;20041;-70
2023/10/25 12:28:27;;;;;;;6.13;3.38;;;;;;;22.31;58.07;99112.09;40141898;29;20074;-73
2023/10/25 12:48:27;;;;;;;6.68;3.13;;;;;;;22.43;58.44;99084.50;40151610;29;20061;-76
2023/10/25 13:08:28;;;;;;;3.92;2.72;;;;;;;22.42;58.82;99084.66;40155647;29;20034;-76
2023/10/25 13:28:28;;;;;;;67.82;23.27;;;;;;;22.33;58.75;99078.50;40125550;29;20572;-74
2023/10/25 13:48:29;;;;;;;49.05;15.50;;;;;;;22.35;58.50;99085.25;40144764;29;20057;-74
2023/10/25 14:08:30;;;;;;;30.20;12.52;;;;;;;22.38;58.80;99063.03;40175800;29;20050;-73
2023/10/25 14:28:31;;;;;;;25.80;10.68;;;;;;;22.47;59.19;99088.47;40186146;29;20046;-75
2023/10/25 14:48:32;;;;;;;24.70;10.35;;;;;;;22.41;58.84;99077.72;40170324;29;20423;-76
2023/10/25 15:08:33;;;;;;;18.42;8.25;;;;;;;22.27;58.86;99065.94;40150540;29;20069;-75
2023/10/25 15:28:35;;;;;;;19.42;7.80;;;;;;;22.26;58.82;99065.09;40138741;29;20053;-74
2023/10/25 15:48:44;;;;;;;16.70;7.18;;;;;;;22.19;58.89;99024.53;40132041;29;20206;-74
2023/10/25 16:08:46;;;;;;;11.70;4.93;;;;;;;22.01;55.44;99008.81;40126230;29;20057;-73
2023/10/25 16:28:47;;;;;;;11.38;4.43;;;;;;;22.16;57.03;98985.31;40131325;29;20045;-73
2023/10/25 16:48:48;;;;;;;11.57;4.75;;;;;;;22.19;57.56;98992.91;40143117;29;20050;-73
2023/10/25 17:08:49;;;;;;;11.60;4.10;;;;;;;22.18;57.73;98981.53;40143514;29;20050;-75
2023/10/25 17:28:50;;;;;;;15.68;5.05;;;;;;;22.54;60.62;98983.97;40139625;29;20050;-74
2023/10/25 17:48:51;;;;;;;9.38;5.15;;;;;;;22.61;61.17;98955.13;40128570;29;20060;-73
2023/10/25 18:08:52;;;;;;;96.38;20.75;;;;;;;22.50;61.25;98943.06;40108216;29;20046;-74
2023/10/25 18:28:53;;;;;;;69.30;18.27;;;;;;;22.36;61.30;98952.41;40122830;29;20526;-74
2023/10/25 18:48:59;;;;;;;65.60;16.80;;;;;;;22.34;60.99;98957.03;40118159;29;20061;-70
2023/10/25 19:09:02;;;;;;;31.00;11.27;;;;;;;22.22;58.57;98955.66;40099879;29;20080;-70
2023/10/25 19:29:03;;;;;;;30.95;11.07;;;;;;;22.23;59.86;98952.06;40098645;29;20646;-70
2023/10/25 19:49:05;;;;;;;27.02;9.82;;;;;;;22.23;60.54;98923.06;40117584;29;20053;-70
2023/10/25 20:09:06;;;;;;;26.00;10.30;;;;;;;22.28;60.48;98904.94;40146435;29;20121;-71
2023/10/25 20:29:07;;;;;;;22.00;9.07;;;;;;;22.31;61.00;98901.13;40134977;29;20588;-69
2023/10/25 20:49:08;;;;;;;18.20;8.32;;;;;;;22.28;61.19;98875.13;40130782;29;20057;-70
2023/10/25 21:09:10;;;;;;;20.42;7.85;;;;;;;22.27;61.68;98849.72;40135212;29;20053;-70
2023/10/25 21:29:11;;;;;;;16.35;7.88;;;;;;;22.23;61.84;98807.03;40143739;29;20062;-70
2023/10/25 21:49:11;;;;;;;14.02;7.15;;;;;;;22.13;61.66;98790.53;40117564;29;20063;-70
2023/10/25 22:09:16;;;;;;;12.90;7.00;;;;;;;22.21;61.72;98780.81;40142481;29;20124;-73
2023/10/25 22:29:16;;;;;;;12.27;6.22;;;;;;;22.00;61.92;98760.22;40122269;29;20522;-72
2023/10/25 22:49:17;;;;;;;13.65;6.18;;;;;;;22.19;61.88;98774.91;40144096;29;20068;-71
2023/10/25 23:09:17;;;;;;;12.32;5.32;;;;;;;22.11;61.94;98753.81;40116989;29;20063;-71
2023/10/25 23:29:18;;;;;;;9.55;5.45;;;;;;;21.98;62.68;98721.84;40148429;29;20049;-71
2023/10/25 23:49:19;;;;;;;8.73;4.82;;;;;;;22.17;62.35;98734.69;40148476;29;20495;-72
